sensor_id;sensor_type;location;lat;lon;timestamp;P1;durP1;ratioP1;P2;durP2;ratioP2
54935;SDS011;40838;50.676;7.838;2023-09-18T00:00:08;9.40;;;3.75;;
54935;SDS011;40838;50.676;7.838;2023-09-18T00:02:38;9.23;;;4.45;;
54935;SDS011;40838;50.676;7.838;2023-09-18T00:05:05;9.63;;;3.58;;
54935;SDS011;40838;50.676;7.838;2023-09-18T00:07:32;7.10;;;3.42;;
54935;SDS011;40838;50.676;7.838;2023-09-18T00:09:59;9.88;;;3.42;;
54935;SDS011;40838;50.676;7.838;2023-09-18T00:12:25;9.38;;;3.88;;
54935;SDS011;40838;50.676;7.838;2023-09-18T00:14:52;9.25;;;3.45;;
54935;SDS011;40838;50.676;7.838;2023-09-18T00:17:20;15.30;;;4.00;;
54935;SDS011;40838;50.676;7.838;2023-09-18T00:19:48;6.88;;;3.83;;
54935;SDS011;40838;50.676;7.838;2023-09-18T00:22:16;11.02;;;3.72;;
54935;SDS011;40838;50.676;7.838;2023-09-18T00:24:43;14.57;;;4.07;;
54935;SDS011;40838;50.676;7.838;2023-09-18T00:27:10;7.63;;;3.70;;
54935;SDS011;40838;50.676;7.838;2023-09-18T00:29:37;5.28;;;3.58;;
54935;SDS011;40838;50.676;7.838;2023-09-18T00:32:04;11.32;;;3.97;;
54935;SDS011;40838;50.676;7.838;2023-09-18T00:34:33;5.60;;;3.60;;
54935;SDS011;40838;50.676;7.838;2023-09-18T00:37:00;8.18;;;3.35;;
54935;SDS011;40838;50.676;7.838;2023-09-18T00:39:27;10.93;;;4.25;;
54935;SDS011;40838;50.676;7.838;2023-09-18T00:41:56;10.52;;;3.58;;
54935;SDS011;40838;50.676;7.838;2023-09-18T00:44:23;10.18;;;3.70;;
54935;SDS011;40838;50.676;7.838;2023-09-18T00:46:51;12.27;;;3.22;;
54935;SDS011;40838;50.676;7.838;2023-09-18T00:49:20;9.48;;;3.45;;
54935;SDS011;40838;50.676;7.838;2023-09-18T00:51:50;6.68;;;3.47;;
54935;SDS011;40838;50.676;7.838;2023-09-18T00:54:18;6.35;;;3.78;;
54935;SDS011;40838;50.676;7.838;2023-09-18T00:56:45;8.55;;;3.88;;
54935;SDS011;40838;50.676;7.838;2023-09-18T00:59:13;5.47;;;3.30;;
54935;SDS011;40838;50.676;7.838;2023-09-18T01:01:43;9.38;;;3.78;;
54935;SDS011;40838;50.676;7.838;2023-09-18T01:04:12;8.73;;;3.20;;
54935;SDS011;40838;50.676;7.838;2023-09-18T01:06:39;11.57;;;3.47;;
54935;SDS011;40838;50.676;7.838;2023-09-18T01:09:07;8.20;;;3.40;;
54935;SDS011;40838;50.676;7.838;2023-09-18T01:11:40;6.90;;;3.35;;
54935;SDS011;40838;50.676;7.838;2023-09-18T01:14:17;12.88;;;3.72;;
54935;SDS011;40838;50.676;7.838;2023-09-18T01:16:48;6.47;;;3.92;;
54935;SDS011;40838;50.676;7.838;2023-09-18T01:19:33;7.88;;;3.70;;
54935;SDS011;40838;50.676;7.838;2023-09-18T01:22:01;6.38;;;3.55;;
54935;SDS011;40838;50.676;7.838;2023-09-18T01:24:30;10.23;;;3.72;;
54935;SDS011;40838;50.676;7.838;2023-09-18T01:26:57;5.40;;;3.33;;
54935;SDS011;40838;50.676;7.838;2023-09-18T01:29:24;13.27;;;3.55;;
54935;SDS011;40838;50.676;7.838;2023-09-18T01:31:50;10.80;;;3.83;;
54935;SDS011;40838;50.676;7.838;2023-09-18T01:34:17;14.25;;;4.18;;
54935;SDS011;40838;50.676;7.838;2023-09-18T01:36:46;12.90;;;3.97;;
54935;SDS011;40838;50.676;7.838;2023-09-18T01:39:14;6.93;;;3.40;;
54935;SDS011;40838;50.676;7.838;2023-09-18T01:41:43;7.18;;;3.88;;
54935;SDS011;40838;50.676;7.838;2023-09-18T01:44:10;6.82;;;3.33;;
54935;SDS011;40838;50.676;7.838;2023-09-18T01:46:37;5.63;;;3.53;;
54935;SDS011;40838;50.676;7.838;2023-09-18T01:49:05;7.53;;;3.60;;
54935;SDS011;40838;50.676;7.838;2023-09-18T01:51:32;6.43;;;3.33;;
54935;SDS011;40838;50.676;7.838;2023-09-18T01:54:00;11.45;;;4.53;;
54935;SDS011;40838;50.676;7.838;2023-09-18T01:56:28;8.70;;;3.30;;
54935;SDS011;40838;50.676;7.838;2023-09-18T01:58:56;7.25;;;3.45;;
54935;SDS011;40838;50.676;7.838;2023-09-18T02:01:23;5.68;;;3.25;;
54935;SDS011;40838;50.676;7.838;2023-09-18T02:03:50;6.68;;;3.47;;
54935;SDS011;40838;50.676;7.838;2023-09-18T02:06:18;5.72;;;2.85;;
54935;SDS011;40838;50.676;7.838;2023-09-18T02:08:44;15.40;;;3.90;;
54935;SDS011;40838;50.676;7.838;2023-09-18T02:11:12;4.95;;;2.97;;
54935;SDS011;40838;50.676;7.838;2023-09-18T02:13:38;6.22;;;3.65;;
54935;SDS011;40838;50.676;7.838;2023-09-18T02:16:06;15.25;;;3.03;;
54935;SDS011;40838;50.676;7.838;2023-09-18T02:18:34;10.30;;;3.35;;
54935;SDS011;40838;50.676;7.838;2023-09-18T02:21:00;11.93;;;3.05;;
54935;SDS011;40838;50.676;7.838;2023-09-18T02:23:27;11.75;;;3.00;;
54935;SDS011;40838;50.676;7.838;2023-09-18T02:25:57;9.85;;;2.88;;
54935;SDS011;40838;50.676;7.838;2023-09-18T02:28:24;11.00;;;3.45;;
54935;SDS011;40838;50.676;7.838;2023-09-18T02:30:51;8.05;;;2.92;;
54935;SDS011;40838;50.676;7.838;2023-09-18T02:33:19;13.73;;;3.88;;
54935;SDS011;40838;50.676;7.838;2023-09-18T02:35:46;12.60;;;3.28;;
54935;SDS011;40838;50.676;7.838;2023-09-18T02:38:12;12.68;;;3.92;;
54935;SDS011;40838;50.676;7.838;2023-09-18T02:40:39;16.05;;;3.70;;
54935;SDS011;40838;50.676;7.838;2023-09-18T02:43:06;22.65;;;4.43;;
54935;SDS011;40838;50.676;7.838;2023-09-18T02:45:32;13.38;;;4.10;;
54935;SDS011;40838;50.676;7.838;2023-09-18T02:47:59;14.13;;;4.55;;
54935;SDS011;40838;50.676;7.838;2023-09-18T02:50:27;17.67;;;4.25;;
54935;SDS011;40838;50.676;7.838;2023-09-18T02:52:54;13.35;;;4.18;;
54935;SDS011;40838;50.676;7.838;2023-09-18T02:55:21;12.60;;;4.63;;
54935;SDS011;40838;50.676;7.838;2023-09-18T02:57:48;13.07;;;5.43;;
54935;SDS011;40838;50.676;7.838;2023-09-18T03:00:14;16.02;;;4.55;;
54935;SDS011;40838;50.676;7.838;2023-09-18T03:02:42;16.58;;;5.28;;
54935;SDS011;40838;50.676;7.838;2023-09-18T03:05:11;12.60;;;5.38;;
54935;SDS011;40838;50.676;7.838;2023-09-18T03:07:39;15.63;;;5.13;;
54935;SDS011;40838;50.676;7.838;2023-09-18T03:10:07;15.45;;;4.72;;
54935;SDS011;40838;50.676;7.838;2023-09-18T03:12:38;9.65;;;4.28;;
54935;SDS011;40838;50.676;7.838;2023-09-18T03:15:05;20.15;;;5.95;;
54935;SDS011;40838;50.676;7.838;2023-09-18T03:17:33;9.80;;;4.35;;
54935;SDS011;40838;50.676;7.838;2023-09-18T03:20:00;11.45;;;4.97;;
54935;SDS011;40838;50.676;7.838;2023-09-18T03:22:27;12.45;;;5.20;;
54935;SDS011;40838;50.676;7.838;2023-09-18T03:24:55;12.00;;;5.70;;
54935;SDS011;40838;50.676;7.838;2023-09-18T03:27:22;14.55;;;4.82;;
54935;SDS011;40838;50.676;7.838;2023-09-18T03:29:54;9.75;;;4.25;;
54935;SDS011;40838;50.676;7.838;2023-09-18T03:32:21;8.65;;;4.63;;
54935;SDS011;40838;50.676;7.838;2023-09-18T03:34:50;9.07;;;4.68;;
54935;SDS011;40838;50.676;7.838;2023-09-18T03:37:16;11.50;;;4.53;;
54935;SDS011;40838;50.676;7.838;2023-09-18T03:39:43;7.45;;;4.10;;
54935;SDS011;40838;50.676;7.838;2023-09-18T03:42:12;9.23;;;3.70;;
54935;SDS011;40838;50.676;7.838;2023-09-18T03:44:38;9.55;;;4.05;;
54935;SDS011;40838;50.676;7.838;2023-09-18T03:47:05;9.15;;;4.10;;
54935;SDS011;40838;50.676;7.838;2023-09-18T03:49:32;9.95;;;4.13;;
54935;SDS011;40838;50.676;7.838;2023-09-18T03:51:59;9.52;;;3.63;;
54935;SDS011;40838;50.676;7.838;2023-09-18T03:54:26;10.80;;;3.97;;
54935;SDS011;40838;50.676;7.838;2023-09-18T03:56:55;10.57;;;3.65;;
54935;SDS011;40838;50.676;7.838;2023-09-18T03:59:23;10.13;;;3.53;;
54935;SDS011;40838;50.676;7.838;2023-09-18T04:01:49;9.73;;;4.10;;
54935;SDS011;40838;50.676;7.838;2023-09-18T04:04:16;12.80;;;5.18;;
54935;SDS011;40838;50.676;7.838;2023-09-18T04:06:43;8.90;;;4.03;;
54935;SDS011;40838;50.676;7.838;2023-09-18T04:09:11;11.93;;;4.47;;
54935;SDS011;40838;50.676;7.838;2023-09-18T04:11:41;9.68;;;3.90;;
54935;SDS011;40838;50.676;7.838;2023-09-18T04:14:08;8.65;;;3.60;;
54935;SDS011;40838;50.676;7.838;2023-09-18T04:16:36;13.23;;;4.15;;
54935;SDS011;40838;50.676;7.838;2023-09-18T04:19:07;9.75;;;4.10;;
54935;SDS011;40838;50.676;7.838;2023-09-18T04:21:35;7.75;;;3.92;;
54935;SDS011;40838;50.676;7.838;2023-09-18T04:24:02;10.23;;;3.80;;
54935;SDS011;40838;50.676;7.838;2023-09-18T04:26:29;13.77;;;4.20;;
54935;SDS011;40838;50.676;7.838;2023-09-18T04:28:56;9.13;;;3.60;;
54935;SDS011;40838;50.676;7.838;2023-09-18T04:31:24;11.00;;;3.80;;
54935;SDS011;40838;50.676;7.838;2023-09-18T04:33:53;10.88;;;4.57;;
54935;SDS011;40838;50.676;7.838;2023-09-18T04:36:20;6.38;;;3.95;;
54935;SDS011;40838;50.676;7.838;2023-09-18T04:38:47;8.23;;;4.38;;
54935;SDS011;40838;50.676;7.838;2023-09-18T04:41:14;13.93;;;4.00;;
54935;SDS011;40838;50.676;7.838;2023-09-18T04:43:41;11.95;;;3.90;;
54935;SDS011;40838;50.676;7.838;2023-09-18T04:46:09;7.75;;;4.28;;
54935;SDS011;40838;50.676;7.838;2023-09-18T04:48:36;9.88;;;4.28;;
54935;SDS011;40838;50.676;7.838;2023-09-18T04:51:06;8.77;;;4.38;;
54935;SDS011;40838;50.676;7.838;2023-09-18T04:53:32;7.78;;;3.55;;
54935;SDS011;40838;50.676;7.838;2023-09-18T04:56:01;12.35;;;4.22;;
54935;SDS011;40838;50.676;7.838;2023-09-18T04:58:28;25.38;;;4.50;;
54935;SDS011;40838;50.676;7.838;2023-09-18T05:00:56;13.18;;;4.22;;
54935;SDS011;40838;50.676;7.838;2023-09-18T05:03:24;14.45;;;5.32;;
54935;SDS011;40838;50.676;7.838;2023-09-18T05:05:54;10.45;;;4.20;;
54935;SDS011;40838;50.676;7.838;2023-09-18T05:08:22;10.23;;;3.67;;
54935;SDS011;40838;50.676;7.838;2023-09-18T05:10:49;14.15;;;4.63;;
54935;SDS011;40838;50.676;7.838;2023-09-18T05:13:16;12.35;;;4.30;;
54935;SDS011;40838;50.676;7.838;2023-09-18T05:15:42;10.80;;;4.60;;
54935;SDS011;40838;50.676;7.838;2023-09-18T05:18:09;14.55;;;4.40;;
54935;SDS011;40838;50.676;7.838;2023-09-18T05:20:39;14.93;;;4.20;;
54935;SDS011;40838;50.676;7.838;2023-09-18T05:23:06;16.25;;;4.13;;
54935;SDS011;40838;50.676;7.838;2023-09-18T05:25:34;14.10;;;4.35;;
54935;SDS011;40838;50.676;7.838;2023-09-18T05:28:03;14.07;;;4.25;;
54935;SDS011;40838;50.676;7.838;2023-09-18T05:30:31;13.32;;;4.70;;
54935;SDS011;40838;50.676;7.838;2023-09-18T05:32:59;13.25;;;3.90;;
54935;SDS011;40838;50.676;7.838;2023-09-18T05:35:30;10.25;;;4.18;;
54935;SDS011;40838;50.676;7.838;2023-09-18T05:37:56;17.67;;;4.30;;
54935;SDS011;40838;50.676;7.838;2023-09-18T05:40:23;16.23;;;3.50;;
54935;SDS011;40838;50.676;7.838;2023-09-18T05:42:53;11.80;;;3.85;;
54935;SDS011;40838;50.676;7.838;2023-09-18T05:45:21;12.43;;;3.55;;
54935;SDS011;40838;50.676;7.838;2023-09-18T05:47:48;9.05;;;3.55;;
54935;SDS011;40838;50.676;7.838;2023-09-18T05:50:15;15.32;;;3.90;;
54935;SDS011;40838;50.676;7.838;2023-09-18T05:52:43;18.58;;;3.65;;
54935;SDS011;40838;50.676;7.838;2023-09-18T05:55:11;7.50;;;3.53;;
54935;SDS011;40838;50.676;7.838;2023-09-18T05:57:39;11.15;;;3.55;;
54935;SDS011;40838;50.676;7.838;2023-09-18T06:00:09;17.40;;;4.13;;
54935;SDS011;40838;50.676;7.838;2023-09-18T06:02:38;13.27;;;3.70;;
54935;SDS011;40838;50.676;7.838;2023-09-18T06:05:05;12.93;;;3.92;;
54935;SDS011;40838;50.676;7.838;2023-09-18T06:07:32;19.50;;;4.35;;
54935;SDS011;40838;50.676;7.838;2023-09-18T06:09:59;17.52;;;4.13;;
54935;SDS011;40838;50.676;7.838;2023-09-18T06:12:26;12.57;;;3.83;;
54935;SDS011;40838;50.676;7.838;2023-09-18T06:14:53;12.07;;;4.10;;
54935;SDS011;40838;50.676;7.838;2023-09-18T06:17:21;12.45;;;5.57;;
54935;SDS011;40838;50.676;7.838;2023-09-18T06:19:48;15.55;;;4.00;;
54935;SDS011;40838;50.676;7.838;2023-09-18T06:22:15;12.82;;;4.35;;
54935;SDS011;40838;50.676;7.838;2023-09-18T06:24:41;13.75;;;3.78;;
54935;SDS011;40838;50.676;7.838;2023-09-18T06:27:08;10.80;;;4.50;;
54935;SDS011;40838;50.676;7.838;2023-09-18T06:29:36;9.60;;;3.15;;
54935;SDS011;40838;50.676;7.838;2023-09-18T06:32:04;15.73;;;3.88;;
54935;SDS011;40838;50.676;7.838;2023-09-18T06:34:33;13.35;;;3.47;;
54935;SDS011;40838;50.676;7.838;2023-09-18T06:37:02;14.82;;;4.15;;
54935;SDS011;40838;50.676;7.838;2023-09-18T06:39:31;17.13;;;4.07;;
54935;SDS011;40838;50.676;7.838;2023-09-18T06:42:01;10.43;;;3.22;;
54935;SDS011;40838;50.676;7.838;2023-09-18T06:44:27;9.10;;;2.50;;
54935;SDS011;40838;50.676;7.838;2023-09-18T06:46:54;14.88;;;3.63;;
54935;SDS011;40838;50.676;7.838;2023-09-18T06:49:21;9.38;;;2.67;;
54935;SDS011;40838;50.676;7.838;2023-09-18T06:51:51;17.30;;;3.60;;
54935;SDS011;40838;50.676;7.838;2023-09-18T06:54:18;13.85;;;3.38;;
54935;SDS011;40838;50.676;7.838;2023-09-18T06:56:45;8.32;;;3.30;;
54935;SDS011;40838;50.676;7.838;2023-09-18T06:59:11;14.73;;;3.65;;
54935;SDS011;40838;50.676;7.838;2023-09-18T07:01:38;13.93;;;3.85;;
54935;SDS011;40838;50.676;7.838;2023-09-18T07:04:07;9.57;;;3.17;;
54935;SDS011;40838;50.676;7.838;2023-09-18T07:06:34;12.10;;;3.10;;
54935;SDS011;40838;50.676;7.838;2023-09-18T07:09:03;9.57;;;2.92;;
54935;SDS011;40838;50.676;7.838;2023-09-18T07:11:32;15.55;;;3.25;;
54935;SDS011;40838;50.676;7.838;2023-09-18T07:13:59;10.88;;;3.05;;
54935;SDS011;40838;50.676;7.838;2023-09-18T07:16:26;9.27;;;3.05;;
54935;SDS011;40838;50.676;7.838;2023-09-18T07:18:53;6.78;;;2.85;;
54935;SDS011;40838;50.676;7.838;2023-09-18T07:21:19;9.10;;;2.60;;
54935;SDS011;40838;50.676;7.838;2023-09-18T07:23:46;11.27;;;2.75;;
54935;SDS011;40838;50.676;7.838;2023-09-18T07:26:15;10.45;;;2.75;;
54935;SDS011;40838;50.676;7.838;2023-09-18T07:28:42;8.80;;;2.80;;
54935;SDS011;40838;50.676;7.838;2023-09-18T07:31:09;12.15;;;3.03;;
54935;SDS011;40838;50.676;7.838;2023-09-18T07:33:39;6.93;;;2.30;;
54935;SDS011;40838;50.676;7.838;2023-09-18T07:36:06;10.60;;;3.78;;
54935;SDS011;40838;50.676;7.838;2023-09-18T07:38:35;8.00;;;2.30;;
54935;SDS011;40838;50.676;7.838;2023-09-18T07:41:02;3.92;;;2.17;;
54935;SDS011;40838;50.676;7.838;2023-09-18T07:43:30;7.05;;;2.67;;
54935;SDS011;40838;50.676;7.838;2023-09-18T07:45:57;8.07;;;2.53;;
54935;SDS011;40838;50.676;7.838;2023-09-18T07:48:25;4.13;;;1.80;;
54935;SDS011;40838;50.676;7.838;2023-09-18T07:50:52;6.93;;;2.03;;
54935;SDS011;40838;50.676;7.838;2023-09-18T07:53:20;13.07;;;3.10;;
54935;SDS011;40838;50.676;7.838;2023-09-18T07:55:47;6.45;;;1.83;;
54935;SDS011;40838;50.676;7.838;2023-09-18T07:58:14;5.88;;;2.30;;
54935;SDS011;40838;50.676;7.838;2023-09-18T08:00:50;9.50;;;1.80;;
54935;SDS011;40838;50.676;7.838;2023-09-18T08:03:19;8.77;;;2.30;;
54935;SDS011;40838;50.676;7.838;2023-09-18T08:05:49;6.55;;;2.42;;
54935;SDS011;40838;50.676;7.838;2023-09-18T08:08:16;7.72;;;1.85;;
54935;SDS011;40838;50.676;7.838;2023-09-18T08:10:42;3.72;;;2.08;;
54935;SDS011;40838;50.676;7.838;2023-09-18T08:13:09;5.93;;;2.10;;
54935;SDS011;40838;50.676;7.838;2023-09-18T08:15:36;10.75;;;2.05;;
54935;SDS011;40838;50.676;7.838;2023-09-18T08:18:04;6.10;;;1.80;;
54935;SDS011;40838;50.676;7.838;2023-09-18T08:20:31;8.48;;;1.83;;
54935;SDS011;40838;50.676;7.838;2023-09-18T08:23:00;8.85;;;1.98;;
54935;SDS011;40838;50.676;7.838;2023-09-18T08:25:26;7.50;;;1.92;;
54935;SDS011;40838;50.676;7.838;2023-09-18T08:27:53;5.82;;;1.88;;
54935;SDS011;40838;50.676;7.838;2023-09-18T08:30:20;10.73;;;1.65;;
54935;SDS011;40838;50.676;7.838;2023-09-18T08:32:47;6.50;;;1.83;;
54935;SDS011;40838;50.676;7.838;2023-09-18T08:35:15;4.93;;;1.65;;
54935;SDS011;40838;50.676;7.838;2023-09-18T08:37:42;8.25;;;2.08;;
54935;SDS011;40838;50.676;7.838;2023-09-18T08:40:09;7.82;;;2.00;;
54935;SDS011;40838;50.676;7.838;2023-09-18T08:42:39;7.03;;;1.55;;
54935;SDS011;40838;50.676;7.838;2023-09-18T08:45:10;6.22;;;1.90;;
54935;SDS011;40838;50.676;7.838;2023-09-18T08:47:45;3.45;;;1.40;;
54935;SDS011;40838;50.676;7.838;2023-09-18T08:50:12;3.38;;;1.50;;
54935;SDS011;40838;50.676;7.838;2023-09-18T08:52:41;4.75;;;1.60;;
54935;SDS011;40838;50.676;7.838;2023-09-18T08:55:09;6.43;;;1.45;;
54935;SDS011;40838;50.676;7.838;2023-09-18T08:57:37;7.30;;;1.83;;
54935;SDS011;40838;50.676;7.838;2023-09-18T09:00:06;14.10;;;2.30;;
54935;SDS011;40838;50.676;7.838;2023-09-18T09:02:36;9.93;;;1.90;;
54935;SDS011;40838;50.676;7.838;2023-09-18T09:05:04;4.25;;;1.70;;
54935;SDS011;40838;50.676;7.838;2023-09-18T09:07:34;5.70;;;1.33;;
54935;SDS011;40838;50.676;7.838;2023-09-18T09:10:01;2.75;;;1.60;;
54935;SDS011;40838;50.676;7.838;2023-09-18T09:12:47;7.63;;;1.70;;
54935;SDS011;40838;50.676;7.838;2023-09-18T09:15:24;5.22;;;1.75;;
54935;SDS011;40838;50.676;7.838;2023-09-18T09:18:01;3.72;;;1.70;;
54935;SDS011;40838;50.676;7.838;2023-09-18T09:20:29;3.17;;;1.52;;
54935;SDS011;40838;50.676;7.838;2023-09-18T09:23:01;3.95;;;1.83;;
54935;SDS011;40838;50.676;7.838;2023-09-18T09:25:28;3.22;;;1.30;;
54935;SDS011;40838;50.676;7.838;2023-09-18T09:27:58;8.60;;;1.50;;
54935;SDS011;40838;50.676;7.838;2023-09-18T09:30:26;6.20;;;1.45;;
54935;SDS011;40838;50.676;7.838;2023-09-18T09:32:56;8.45;;;2.00;;
54935;SDS011;40838;50.676;7.838;2023-09-18T09:35:25;7.20;;;1.67;;
54935;SDS011;40838;50.676;7.838;2023-09-18T09:37:56;6.35;;;1.85;;
54935;SDS011;40838;50.676;7.838;2023-09-18T09:40:28;4.38;;;1.63;;
54935;SDS011;40838;50.676;7.838;2023-09-18T09:42:56;5.15;;;1.48;;
54935;SDS011;40838;50.676;7.838;2023-09-18T09:45:27;6.32;;;1.83;;
54935;SDS011;40838;50.676;7.838;2023-09-18T09:47:55;5.72;;;1.50;;
54935;SDS011;40838;50.676;7.838;2023-09-18T09:50:23;7.97;;;1.90;;
54935;SDS011;40838;50.676;7.838;2023-09-18T09:52:52;5.38;;;1.67;;
54935;SDS011;40838;50.676;7.838;2023-09-18T09:55:21;3.22;;;1.20;;
54935;SDS011;40838;50.676;7.838;2023-09-18T09:57:51;2.45;;;1.30;;
54935;SDS011;40838;50.676;7.838;2023-09-18T10:00:22;6.00;;;1.70;;
54935;SDS011;40838;50.676;7.838;2023-09-18T10:02:59;7.97;;;1.35;;
54935;SDS011;40838;50.676;7.838;2023-09-18T10:05:29;8.77;;;2.33;;
54935;SDS011;40838;50.676;7.838;2023-09-18T10:07:58;4.80;;;1.67;;
54935;SDS011;40838;50.676;7.838;2023-09-18T10:10:30;5.75;;;1.58;;
54935;SDS011;40838;50.676;7.838;2023-09-18T10:13:02;5.13;;;1.25;;
54935;SDS011;40838;50.676;7.838;2023-09-18T10:15:34;3.20;;;1.40;;
54935;SDS011;40838;50.676;7.838;2023-09-18T10:18:05;3.28;;;1.20;;
54935;SDS011;40838;50.676;7.838;2023-09-18T10:20:40;5.07;;;1.63;;
54935;SDS011;40838;50.676;7.838;2023-09-18T10:23:12;2.80;;;1.40;;
54935;SDS011;40838;50.676;7.838;2023-09-18T10:25:49;5.63;;;1.67;;
54935;SDS011;40838;50.676;7.838;2023-09-18T10:28:23;5.15;;;1.52;;
54935;SDS011;40838;50.676;7.838;2023-09-18T10:30:55;4.93;;;1.65;;
54935;SDS011;40838;50.676;7.838;2023-09-18T10:33:23;9.20;;;1.27;;
54935;SDS011;40838;50.676;7.838;2023-09-18T10:35:51;7.38;;;1.48;;
54935;SDS011;40838;50.676;7.838;2023-09-18T10:38:19;2.58;;;1.30;;
54935;SDS011;40838;50.676;7.838;2023-09-18T10:40:47;4.13;;;1.52;;
54935;SDS011;40838;50.676;7.838;2023-09-18T10:43:15;4.32;;;1.73;;
54935;SDS011;40838;50.676;7.838;2023-09-18T10:45:45;3.83;;;1.38;;
54935;SDS011;40838;50.676;7.838;2023-09-18T10:48:13;4.18;;;1.30;;
54935;SDS011;40838;50.676;7.838;2023-09-18T10:50:41;4.25;;;1.27;;
54935;SDS011;40838;50.676;7.838;2023-09-18T10:53:11;3.38;;;1.30;;
54935;SDS011;40838;50.676;7.838;2023-09-18T10:55:38;3.35;;;1.90;;
54935;SDS011;40838;50.676;7.838;2023-09-18T10:58:05;6.60;;;1.38;;
54935;SDS011;40838;50.676;7.838;2023-09-18T11:00:32;3.45;;;1.50;;
54935;SDS011;40838;50.676;7.838;2023-09-18T11:03:13;2.35;;;1.40;;
54935;SDS011;40838;50.676;7.838;2023-09-18T11:05:43;7.20;;;1.38;;
54935;SDS011;40838;50.676;7.838;2023-09-18T11:08:29;3.95;;;1.58;;
54935;SDS011;40838;50.676;7.838;2023-09-18T11:10:59;1.90;;;1.00;;
54935;SDS011;40838;50.676;7.838;2023-09-18T11:13:35;2.90;;;1.35;;
54935;SDS011;40838;50.676;7.838;2023-09-18T11:16:12;2.83;;;1.10;;
54935;SDS011;40838;50.676;7.838;2023-09-18T11:18:42;4.30;;;1.27;;
54935;SDS011;40838;50.676;7.838;2023-09-18T11:21:11;6.03;;;1.20;;
54935;SDS011;40838;50.676;7.838;2023-09-18T11:23:39;4.05;;;1.50;;
54935;SDS011;40838;50.676;7.838;2023-09-18T11:26:08;2.13;;;0.95;;
54935;SDS011;40838;50.676;7.838;2023-09-18T11:28:36;6.18;;;1.17;;
54935;SDS011;40838;50.676;7.838;2023-09-18T11:31:03;2.67;;;1.30;;
54935;SDS011;40838;50.676;7.838;2023-09-18T11:33:34;5.40;;;1.30;;
54935;SDS011;40838;50.676;7.838;2023-09-18T11:36:04;4.40;;;1.33;;
54935;SDS011;40838;50.676;7.838;2023-09-18T11:38:33;4.85;;;1.15;;
54935;SDS011;40838;50.676;7.838;2023-09-18T11:41:01;2.80;;;1.13;;
54935;SDS011;40838;50.676;7.838;2023-09-18T11:43:46;4.07;;;1.20;;
54935;SDS011;40838;50.676;7.838;2023-09-18T11:46:14;4.78;;;2.28;;
54935;SDS011;40838;50.676;7.838;2023-09-18T11:48:44;4.20;;;1.27;;
54935;SDS011;40838;50.676;7.838;2023-09-18T11:51:16;2.42;;;1.30;;
54935;SDS011;40838;50.676;7.838;2023-09-18T11:53:48;3.33;;;1.33;;
54935;SDS011;40838;50.676;7.838;2023-09-18T11:56:20;3.92;;;1.35;;
54935;SDS011;40838;50.676;7.838;2023-09-18T11:58:47;1.42;;;1.00;;
54935;SDS011;40838;50.676;7.838;2023-09-18T12:01:14;3.58;;;1.52;;
54935;SDS011;40838;50.676;7.838;2023-09-18T12:03:41;4.20;;;1.42;;
54935;SDS011;40838;50.676;7.838;2023-09-18T12:06:08;5.43;;;1.52;;
54935;SDS011;40838;50.676;7.838;2023-09-18T12:08:39;5.78;;;1.60;;
54935;SDS011;40838;50.676;7.838;2023-09-18T12:11:07;4.78;;;1.20;;
54935;SDS011;40838;50.676;7.838;2023-09-18T12:13:34;4.40;;;1.30;;
54935;SDS011;40838;50.676;7.838;2023-09-18T12:16:01;2.25;;;1.30;;
54935;SDS011;40838;50.676;7.838;2023-09-18T12:18:30;3.15;;;1.60;;
54935;SDS011;40838;50.676;7.838;2023-09-18T12:21:01;4.30;;;1.30;;
54935;SDS011;40838;50.676;7.838;2023-09-18T12:23:36;2.45;;;1.00;;
54935;SDS011;40838;50.676;7.838;2023-09-18T12:26:04;4.93;;;1.70;;
54935;SDS011;40838;50.676;7.838;2023-09-18T12:28:32;2.80;;;1.33;;
54935;SDS011;40838;50.676;7.838;2023-09-18T12:31:00;7.93;;;1.60;;
54935;SDS011;40838;50.676;7.838;2023-09-18T12:33:30;2.72;;;1.30;;
54935;SDS011;40838;50.676;7.838;2023-09-18T12:36:00;2.00;;;1.20;;
54935;SDS011;40838;50.676;7.838;2023-09-18T12:38:28;4.60;;;1.25;;
54935;SDS011;40838;50.676;7.838;2023-09-18T12:40:55;2.05;;;1.15;;
54935;SDS011;40838;50.676;7.838;2023-09-18T12:43:33;2.33;;;1.30;;
54935;SDS011;40838;50.676;7.838;2023-09-18T12:46:01;3.45;;;1.17;;
54935;SDS011;40838;50.676;7.838;2023-09-18T12:48:29;3.13;;;1.42;;
54935;SDS011;40838;50.676;7.838;2023-09-18T12:51:01;1.90;;;1.08;;
54935;SDS011;40838;50.676;7.838;2023-09-18T12:53:32;3.97;;;1.40;;
54935;SDS011;40838;50.676;7.838;2023-09-18T12:56:06;3.03;;;1.35;;
54935;SDS011;40838;50.676;7.838;2023-09-18T12:58:35;2.78;;;1.33;;
54935;SDS011;40838;50.676;7.838;2023-09-18T13:01:03;2.72;;;1.40;;
54935;SDS011;40838;50.676;7.838;2023-09-18T13:03:34;2.58;;;1.65;;
54935;SDS011;40838;50.676;7.838;2023-09-18T13:06:12;5.57;;;1.75;;
54935;SDS011;40838;50.676;7.838;2023-09-18T13:08:44;7.15;;;1.52;;
54935;SDS011;40838;50.676;7.838;2023-09-18T13:11:11;6.22;;;1.65;;
54935;SDS011;40838;50.676;7.838;2023-09-18T13:13:43;6.43;;;1.48;;
54935;SDS011;40838;50.676;7.838;2023-09-18T13:16:10;3.28;;;1.60;;
54935;SDS011;40838;50.676;7.838;2023-09-18T13:18:38;3.55;;;1.60;;
54935;SDS011;40838;50.676;7.838;2023-09-18T13:21:09;4.25;;;1.60;;
54935;SDS011;40838;50.676;7.838;2023-09-18T13:23:36;2.85;;;1.45;;
54935;SDS011;40838;50.676;7.838;2023-09-18T13:26:04;1.15;;;1.05;;
54935;SDS011;40838;50.676;7.838;2023-09-18T13:28:33;5.32;;;1.42;;
54935;SDS011;40838;50.676;7.838;2023-09-18T13:31:01;3.95;;;1.30;;
54935;SDS011;40838;50.676;7.838;2023-09-18T13:33:32;1.98;;;1.27;;
54935;SDS011;40838;50.676;7.838;2023-09-18T13:35:59;2.05;;;1.30;;
54935;SDS011;40838;50.676;7.838;2023-09-18T13:38:26;2.65;;;1.30;;
54935;SDS011;40838;50.676;7.838;2023-09-18T13:40:53;5.40;;;1.38;;
54935;SDS011;40838;50.676;7.838;2023-09-18T13:43:19;5.82;;;1.40;;
54935;SDS011;40838;50.676;7.838;2023-09-18T13:45:47;4.80;;;1.80;;
54935;SDS011;40838;50.676;7.838;2023-09-18T13:48:18;3.40;;;1.17;;
54935;SDS011;40838;50.676;7.838;2023-09-18T13:50:44;3.40;;;1.48;;
54935;SDS011;40838;50.676;7.838;2023-09-18T13:53:13;5.88;;;1.52;;
54935;SDS011;40838;50.676;7.838;2023-09-18T13:55:41;3.40;;;1.20;;
54935;SDS011;40838;50.676;7.838;2023-09-18T13:58:08;1.42;;;1.30;;
54935;SDS011;40838;50.676;7.838;2023-09-18T14:00:34;4.25;;;1.52;;
54935;SDS011;40838;50.676;7.838;2023-09-18T14:03:01;3.25;;;1.30;;
54935;SDS011;40838;50.676;7.838;2023-09-18T14:05:30;2.30;;;1.20;;
54935;SDS011;40838;50.676;7.838;2023-09-18T14:07:59;4.55;;;1.38;;
54935;SDS011;40838;50.676;7.838;2023-09-18T14:10:26;1.20;;;1.10;;
54935;SDS011;40838;50.676;7.838;2023-09-18T14:12:54;2.60;;;1.20;;
54935;SDS011;40838;50.676;7.838;2023-09-18T14:15:22;1.60;;;1.17;;
54935;SDS011;40838;50.676;7.838;2023-09-18T14:17:51;2.95;;;1.35;;
54935;SDS011;40838;50.676;7.838;2023-09-18T14:20:19;3.50;;;1.48;;
54935;SDS011;40838;50.676;7.838;2023-09-18T14:22:48;4.35;;;1.48;;
54935;SDS011;40838;50.676;7.838;2023-09-18T14:25:15;1.75;;;1.17;;
54935;SDS011;40838;50.676;7.838;2023-09-18T14:27:42;5.60;;;1.60;;
54935;SDS011;40838;50.676;7.838;2023-09-18T14:30:09;4.93;;;1.45;;
54935;SDS011;40838;50.676;7.838;2023-09-18T14:32:38;2.03;;;1.10;;
54935;SDS011;40838;50.676;7.838;2023-09-18T14:35:05;3.60;;;1.42;;
54935;SDS011;40838;50.676;7.838;2023-09-18T14:37:33;3.90;;;1.40;;
54935;SDS011;40838;50.676;7.838;2023-09-18T14:40:01;4.22;;;1.42;;
54935;SDS011;40838;50.676;7.838;2023-09-18T14:42:28;2.10;;;1.20;;
54935;SDS011;40838;50.676;7.838;2023-09-18T14:44:54;4.13;;;1.30;;
54935;SDS011;40838;50.676;7.838;2023-09-18T14:47:21;3.50;;;1.52;;
54935;SDS011;40838;50.676;7.838;2023-09-18T14:49:48;2.47;;;1.15;;